createdAt,value
2018-10-07T00:00:50.815Z,66.50
2018-10-07T00:03:18.492Z,66.60
2018-10-07T00:05:46.155Z,66.60
2018-10-07T00:08:13.817Z,66.40
2018-10-07T00:10:41.484Z,66.20
2018-10-07T00:13:09.153Z,66.10
2018-10-07T00:15:38.232Z,65.80
2018-10-07T00:18:07.398Z,65.80
2018-10-07T00:20:35.886Z,65.70
2018-10-07T00:23:04.559Z,65.80
2018-10-07T00:25:32.222Z,65.70
2018-10-07T00:28:00.672Z,65.80
2018-10-07T00:30:29.256Z,65.80
2018-10-07T00:32:56.955Z,65.80
2018-10-07T00:35:24.619Z,65.80
2018-10-07T00:37:52.288Z,66.30
2018-10-07T00:40:19.965Z,65.90
2018-10-07T00:42:47.635Z,66.10
2018-10-07T00:45:15.328Z,65.90
2018-10-07T00:47:43.004Z,66.00
2018-10-07T00:50:10.677Z,65.90
2018-10-07T00:52:38.336Z,65.90
2018-10-07T00:55:07.519Z,65.90
2018-10-07T00:57:36.208Z,65.90
2018-10-07T01:00:03.973Z,66.00
2018-10-07T01:02:32.543Z,66.00
2018-10-07T01:05:01.236Z,66.10
2018-10-07T01:07:29.895Z,66.20
2018-10-07T01:09:58.599Z,66.30
2018-10-07T01:12:27.296Z,66.20
2018-10-07T01:14:56.000Z,66.10
2018-10-07T01:17:25.536Z,66.10
2018-10-07T01:19:54.241Z,66.10
2018-10-07T01:22:23.000Z,66.00
2018-10-07T01:24:51.718Z,66.10
2018-10-07T01:27:20.408Z,66.00
2018-10-07T01:29:49.127Z,66.00
2018-10-07T01:32:16.812Z,66.10
2018-10-07T01:34:45.584Z,66.10
2018-10-07T01:37:14.296Z,66.20
2018-10-07T01:39:42.967Z,66.30
2018-10-07T01:42:11.663Z,66.30
2018-10-07T01:44:40.247Z,66.20
2018-10-07T01:47:08.824Z,66.20
2018-10-07T01:49:38.000Z,66.10
2018-10-07T01:52:07.956Z,66.10
2018-10-07T01:54:37.259Z,66.10
2018-10-07T01:57:07.359Z,66.10
2018-10-07T01:59:35.060Z,66.10
2018-10-07T02:02:02.740Z,66.20
2018-10-07T02:04:31.444Z,66.30
2018-10-07T02:07:00.129Z,66.30
2018-10-07T02:09:27.832Z,66.40
2018-10-07T02:11:55.512Z,66.40
2018-10-07T02:14:23.187Z,66.30
2018-10-07T02:16:50.852Z,66.30
2018-10-07T02:19:18.532Z,66.90
2018-10-07T02:21:46.200Z,66.20
2018-10-07T02:24:13.864Z,66.20
2018-10-07T02:26:41.524Z,66.20
2018-10-07T02:29:09.200Z,66.20
2018-10-07T02:31:38.618Z,66.30
2018-10-07T02:34:08.043Z,66.40
2018-10-07T02:36:38.060Z,66.40
2018-10-07T02:39:08.504Z,66.60
2018-10-07T02:41:38.234Z,66.50
2018-10-07T02:44:07.931Z,66.40
2018-10-07T02:46:37.946Z,66.40
2018-10-07T02:49:07.788Z,66.30
2018-10-07T02:51:36.637Z,66.40
2018-10-07T02:54:06.657Z,66.30
2018-10-07T02:56:38.061Z,66.40
2018-10-07T02:59:07.531Z,66.40
2018-10-07T03:01:36.784Z,66.50
2018-10-07T03:04:07.604Z,66.40
2018-10-07T03:06:36.368Z,66.60
2018-10-07T03:11:38.393Z,66.50
2018-10-07T03:14:07.572Z,66.40
2018-10-07T03:16:37.420Z,66.40
2018-10-07T03:19:06.931Z,66.40
2018-10-07T03:21:34.643Z,66.50
2018-10-07T03:24:03.339Z,66.50
2018-10-07T03:26:31.126Z,66.60
2018-10-07T03:28:59.715Z,66.60
2018-10-07T03:31:27.384Z,66.50
2018-10-07T03:33:55.943Z,66.60
2018-10-07T03:36:24.640Z,66.70
2018-10-07T03:38:53.236Z,66.80
2018-10-07T03:41:20.903Z,66.60
2018-10-07T03:43:49.476Z,66.50
2018-10-07T03:46:17.184Z,66.50
2018-10-07T03:48:45.740Z,66.60
2018-10-07T03:51:14.456Z,66.50
2018-10-07T03:53:43.113Z,66.60
2018-10-07T03:56:10.835Z,66.60
2018-10-07T03:58:39.416Z,66.60
2018-10-07T04:01:08.651Z,66.70
2018-10-07T04:03:38.319Z,66.80
2018-10-07T04:06:08.039Z,66.90
2018-10-07T04:08:38.744Z,66.70
2018-10-07T04:11:07.412Z,66.70
2018-10-07T04:13:36.014Z,66.70
2018-10-07T04:16:04.679Z,66.40
2018-10-07T04:18:33.376Z,66.40
2018-10-07T04:21:02.069Z,66.30
2018-10-07T04:23:30.787Z,66.10
2018-10-07T04:25:59.459Z,66.10
2018-10-07T04:28:27.132Z,66.00
2018-10-07T04:30:55.720Z,65.90
2018-10-07T04:33:24.421Z,65.90
2018-10-07T04:35:53.156Z,65.90
2018-10-07T04:38:21.850Z,66.00
2018-10-07T04:40:50.311Z,66.00
2018-10-07T04:43:18.984Z,66.00
2018-10-07T04:45:47.688Z,66.10
2018-10-07T04:48:15.368Z,66.00
2018-10-07T04:50:44.141Z,66.20
2018-10-07T04:53:11.955Z,66.20
2018-10-07T04:55:39.656Z,66.30
2018-10-07T04:58:08.204Z,66.20
2018-10-07T05:00:37.968Z,66.20
2018-10-07T05:03:07.621Z,66.20
2018-10-07T05:05:37.311Z,66.20
2018-10-07T05:08:07.936Z,66.20
2018-10-07T05:10:39.587Z,66.20
2018-10-07T05:13:08.288Z,66.30
2018-10-07T05:15:36.897Z,66.30
2018-10-07T05:18:06.991Z,66.40
2018-10-07T05:20:34.908Z,66.40
2018-10-07T05:23:04.498Z,66.50
2018-10-07T05:25:32.201Z,66.60
2018-10-07T05:28:00.876Z,66.70
2018-10-07T05:30:29.469Z,66.40
2018-10-07T05:32:58.153Z,66.40
2018-10-07T05:35:26.827Z,66.40
2018-10-07T05:37:54.524Z,66.40
2018-10-07T05:40:22.192Z,66.50
2018-10-07T05:42:49.862Z,66.60
2018-10-07T05:45:17.555Z,66.60
2018-10-07T05:47:45.228Z,66.70
2018-10-07T05:50:12.899Z,66.70
2018-10-07T05:52:40.663Z,66.70
2018-10-07T05:55:08.368Z,66.80
2018-10-07T05:57:36.924Z,66.80
2018-10-07T06:00:04.627Z,66.70
2018-10-07T06:02:32.945Z,66.60
2018-10-07T06:05:01.545Z,66.60
2018-10-07T06:07:29.204Z,66.60
2018-10-07T06:09:56.872Z,66.60
2018-10-07T06:12:24.536Z,66.60
2018-10-07T06:14:57.897Z,66.60
2018-10-07T06:17:25.531Z,66.70
2018-10-07T06:19:53.201Z,66.80
2018-10-07T06:22:20.932Z,66.80
2018-10-07T06:24:48.944Z,66.80
2018-10-07T06:27:16.612Z,66.80
2018-10-07T06:29:44.322Z,66.80
2018-10-07T06:32:11.992Z,66.40
2018-10-07T06:34:40.729Z,66.80
2018-10-07T06:37:09.702Z,66.90
2018-10-07T06:39:37.439Z,67.00
2018-10-07T06:42:05.692Z,66.90
2018-10-07T06:44:33.404Z,67.80
2018-10-07T06:47:01.076Z,67.00
2018-10-07T06:49:28.755Z,67.20
2018-10-07T06:51:56.497Z,67.20
2018-10-07T06:54:24.188Z,67.30
2018-10-07T06:56:51.869Z,67.30
2018-10-07T06:59:19.535Z,67.20
2018-10-07T07:01:48.251Z,67.10
2018-10-07T07:04:15.955Z,67.10
2018-10-07T07:06:43.700Z,67.10
2018-10-07T07:09:11.961Z,67.20
2018-10-07T07:11:41.268Z,67.10
2018-10-07T07:14:09.776Z,67.30
2018-10-07T07:16:37.433Z,67.40
2018-10-07T07:19:05.662Z,67.40
2018-10-07T07:21:33.323Z,67.40
2018-10-07T07:24:01.039Z,67.40
2018-10-07T07:26:28.752Z,67.50
2018-10-07T07:28:56.425Z,67.40
2018-10-07T07:31:24.310Z,67.20
2018-10-07T07:33:51.988Z,67.40
2018-10-07T07:36:19.663Z,67.00
2018-10-07T07:38:47.349Z,67.40
2018-10-07T07:41:15.009Z,67.30
2018-10-07T07:43:43.548Z,67.40
2018-10-07T07:46:11.279Z,67.40
2018-10-07T07:48:39.888Z,67.30
2018-10-07T07:51:07.944Z,67.30
2018-10-07T07:53:36.755Z,67.50
2018-10-07T07:56:04.406Z,67.30
2018-10-07T07:58:32.107Z,67.40
2018-10-07T08:00:59.821Z,67.70
2018-10-07T08:03:28.521Z,67.40
2018-10-07T08:05:56.193Z,67.40
2018-10-07T08:08:24.740Z,67.70
2018-10-07T08:10:53.417Z,67.50
2018-10-07T08:13:22.220Z,67.50
2018-10-07T08:15:50.937Z,67.70
2018-10-07T08:18:18.614Z,67.70
2018-10-07T08:20:47.191Z,67.70
2018-10-07T08:23:15.880Z,67.80
2018-10-07T08:25:44.563Z,67.60
2018-10-07T08:28:12.245Z,67.70
2018-10-07T08:30:41.031Z,67.80
2018-10-07T08:33:08.695Z,67.60
2018-10-07T08:35:38.686Z,67.60
2018-10-07T08:38:07.299Z,67.70
2018-10-07T08:40:36.609Z,67.70
2018-10-07T08:43:04.303Z,67.40
2018-10-07T08:45:32.985Z,67.30
2018-10-07T08:48:00.648Z,67.20
2018-10-07T08:50:28.304Z,67.10
2018-10-07T08:52:56.073Z,67.10
2018-10-07T08:55:23.782Z,67.10
2018-10-07T08:57:51.475Z,67.00
2018-10-07T09:00:20.246Z,67.10
2018-10-07T09:02:48.907Z,67.10
2018-10-07T09:05:17.588Z,67.00
2018-10-07T09:07:45.295Z,67.10
2018-10-07T09:10:12.956Z,67.10
2018-10-07T09:12:41.600Z,67.20
2018-10-07T09:15:10.116Z,67.10
2018-10-07T09:17:37.771Z,67.20
2018-10-07T09:20:06.435Z,67.10
2018-10-07T09:22:34.096Z,67.10
2018-10-07T09:25:01.796Z,67.00
2018-10-07T09:27:29.482Z,67.00
2018-10-07T09:29:57.164Z,67.00
2018-10-07T09:32:25.785Z,67.00
2018-10-07T09:34:53.516Z,67.00
2018-10-07T09:37:21.192Z,67.00
2018-10-07T09:39:48.944Z,67.00
2018-10-07T09:42:16.611Z,67.20
2018-10-07T09:44:44.285Z,67.30
2018-10-07T09:47:12.008Z,67.20
2018-10-07T09:49:40.404Z,67.10
2018-10-07T09:52:08.182Z,67.10
2018-10-07T09:54:37.556Z,67.10
2018-10-07T09:57:07.257Z,67.10
2018-10-07T09:59:34.929Z,67.00
2018-10-07T10:02:03.608Z,67.00
2018-10-07T10:04:31.392Z,67.00
2018-10-07T10:07:00.073Z,67.00
2018-10-07T10:09:27.776Z,67.00
2018-10-07T10:11:56.505Z,67.00
2018-10-07T10:14:25.180Z,67.60
2018-10-07T10:17:00.213Z,67.00
2018-10-07T10:19:34.145Z,67.00
2018-10-07T10:22:07.218Z,67.00
2018-10-07T10:24:40.589Z,67.00
2018-10-07T10:27:11.027Z,67.00
2018-10-07T10:29:44.325Z,67.00
2018-10-07T10:32:16.055Z,66.90
2018-10-07T10:34:46.627Z,66.90
2018-10-07T10:37:16.480Z,66.90
2018-10-07T10:39:51.346Z,66.90
2018-10-07T10:42:21.498Z,66.70
2018-10-07T10:44:49.993Z,66.80
2018-10-07T10:47:24.544Z,66.80
2018-10-07T10:49:55.484Z,66.80
2018-10-07T10:52:29.107Z,67.50
2018-10-07T10:55:06.088Z,66.80
2018-10-07T10:57:35.848Z,66.80
2018-10-07T11:00:06.879Z,66.60
2018-10-07T11:02:37.728Z,66.70
2018-10-07T11:05:11.141Z,66.60
2018-10-07T11:07:48.000Z,66.70
2018-10-07T11:10:23.072Z,66.40
2018-10-07T11:12:55.728Z,66.40
2018-10-07T11:15:27.067Z,66.50
2018-10-07T11:17:59.175Z,66.50
2018-10-07T11:20:33.064Z,66.50
2018-10-07T11:23:03.456Z,66.50
2018-10-07T11:26:06.768Z,66.40
2018-10-07T11:28:41.167Z,66.40
2018-10-07T11:33:22.340Z,66.40
2018-10-07T11:35:52.324Z,66.40
2018-10-07T11:38:29.323Z,66.60
2018-10-07T11:41:03.296Z,66.70
2018-10-07T11:43:48.644Z,66.60
2018-10-07T11:46:18.916Z,66.40
2018-10-07T11:48:51.132Z,66.40
2018-10-07T11:51:22.012Z,66.40
2018-10-07T11:53:53.879Z,66.20
2018-10-07T11:56:22.548Z,66.20
2018-10-07T11:58:50.213Z,66.00
2018-10-07T12:01:18.968Z,65.90
2018-10-07T12:03:46.636Z,66.00
2018-10-07T12:06:15.308Z,66.00
2018-10-07T12:08:44.048Z,65.40
2018-10-07T12:11:12.840Z,65.90
2018-10-07T12:13:41.393Z,66.00
2018-10-07T12:16:09.896Z,66.00
2018-10-07T12:18:37.567Z,66.00
2018-10-07T12:21:05.806Z,66.00
2018-10-07T12:23:34.527Z,66.00
2018-10-07T12:26:03.215Z,66.00
2018-10-07T12:28:31.776Z,66.00
2018-10-07T12:31:00.333Z,65.90
2018-10-07T12:33:28.008Z,65.90
2018-10-07T12:35:55.676Z,65.90
2018-10-07T12:38:23.684Z,66.00
2018-10-07T12:40:52.315Z,65.90
2018-10-07T12:43:20.987Z,65.80
2018-10-07T12:45:48.640Z,65.90
2018-10-07T12:48:16.316Z,65.80
2018-10-07T12:50:45.068Z,65.80
2018-10-07T12:53:12.754Z,65.70
2018-10-07T12:55:40.972Z,65.90
2018-10-07T12:58:10.372Z,65.60
2018-10-07T13:00:38.120Z,65.80
2018-10-07T13:03:07.831Z,65.70
2018-10-07T13:05:36.351Z,66.60
2018-10-07T13:08:04.126Z,65.50
2018-10-07T13:10:31.833Z,65.30
2018-10-07T13:13:00.555Z,65.10
2018-10-07T13:15:28.253Z,65.00
2018-10-07T13:17:55.980Z,64.90
2018-10-07T13:20:23.689Z,65.00
2018-10-07T13:22:51.417Z,64.90
2018-10-07T13:25:19.166Z,64.90
2018-10-07T13:27:46.863Z,65.00
2018-10-07T13:30:15.558Z,65.10
2018-10-07T13:32:44.270Z,65.10
2018-10-07T13:35:12.931Z,65.30
2018-10-07T13:37:42.301Z,65.30
2018-10-07T13:40:10.840Z,65.30
2018-10-07T13:42:39.478Z,65.40
2018-10-07T13:45:08.189Z,65.20
2018-10-07T13:47:35.953Z,65.40
2018-10-07T13:50:03.621Z,65.30
2018-10-07T13:52:31.341Z,65.20
2018-10-07T13:54:59.072Z,65.20
2018-10-07T13:57:27.602Z,65.40
2018-10-07T13:59:55.313Z,65.00
2018-10-07T14:02:23.120Z,65.30
2018-10-07T14:04:50.909Z,65.20
2018-10-07T14:07:18.640Z,65.10
2018-10-07T14:09:46.472Z,65.20
2018-10-07T14:12:15.036Z,65.20
2018-10-07T14:14:42.727Z,65.00
2018-10-07T14:17:11.332Z,65.20
2018-10-07T14:19:39.851Z,65.50
2018-10-07T14:22:08.053Z,64.90
2018-10-07T14:24:36.608Z,64.90
2018-10-07T14:27:04.271Z,65.10
2018-10-07T14:29:31.948Z,65.00
2018-10-07T14:31:59.671Z,65.00
2018-10-07T14:34:27.343Z,64.80
2018-10-07T14:36:55.008Z,65.00
2018-10-07T14:39:22.732Z,64.80
2018-10-07T14:41:50.360Z,64.40
2018-10-07T14:44:18.026Z,62.70
2018-10-07T14:46:45.684Z,63.00
2018-10-07T14:49:13.413Z,62.60
2018-10-07T14:51:41.920Z,62.10
2018-10-07T14:54:10.252Z,61.30
2018-10-07T14:56:38.177Z,60.80
2018-10-07T14:59:05.915Z,60.30
2018-10-07T15:01:33.676Z,61.20
2018-10-07T15:04:01.396Z,61.10
2018-10-07T15:06:29.056Z,61.20
2018-10-07T15:08:56.727Z,60.70
2018-10-07T15:11:24.421Z,59.70
2018-10-07T15:13:53.083Z,60.20
2018-10-07T15:16:21.772Z,60.20
2018-10-07T15:18:49.428Z,60.20
2018-10-07T15:21:17.179Z,59.80
2018-10-07T15:23:45.968Z,60.10
2018-10-07T15:26:14.553Z,59.40
2018-10-07T15:28:42.388Z,59.00
2018-10-07T15:31:10.825Z,59.50
2018-10-07T15:33:39.848Z,60.20
2018-10-07T15:36:09.392Z,59.20
2018-10-07T15:38:37.931Z,59.40
2018-10-07T15:41:07.048Z,58.60
2018-10-07T15:43:34.779Z,58.40
2018-10-07T15:46:03.342Z,58.70
2018-10-07T15:48:31.007Z,58.40
2018-10-07T15:50:59.688Z,58.20
2018-10-07T15:53:27.400Z,59.20
2018-10-07T15:55:55.050Z,58.30
2018-10-07T15:58:23.600Z,57.90
2018-10-07T16:00:51.267Z,58.50
2018-10-07T16:03:18.948Z,57.90
2018-10-07T16:05:47.507Z,57.80
2018-10-07T16:08:15.159Z,58.20
2018-10-07T16:10:43.851Z,58.60
2018-10-07T16:13:12.533Z,57.80
2018-10-07T16:15:41.225Z,57.50
2018-10-07T16:18:10.340Z,57.80
2018-10-07T16:20:38.005Z,58.30
2018-10-07T16:23:07.856Z,57.50
2018-10-07T16:25:36.006Z,57.70
2018-10-07T16:28:04.593Z,57.40
2018-10-07T16:30:33.148Z,57.70
2018-10-07T16:33:01.884Z,57.80
2018-10-07T16:35:29.540Z,57.40
2018-10-07T16:37:58.287Z,57.60
2018-10-07T16:40:26.989Z,57.60
2018-10-07T16:42:55.671Z,57.50
2018-10-07T16:45:23.331Z,57.50
2018-10-07T16:47:52.041Z,57.30
2018-10-07T16:50:19.709Z,57.20
2018-10-07T16:52:48.327Z,57.20
2018-10-07T16:55:15.951Z,56.30
2018-10-07T16:57:43.613Z,57.10
2018-10-07T17:00:11.268Z,56.90
2018-10-07T17:02:39.980Z,57.20
2018-10-07T17:05:09.649Z,57.00
2018-10-07T17:07:37.963Z,57.20
2018-10-07T17:10:06.840Z,57.60
2018-10-07T17:12:34.555Z,58.00
2018-10-07T17:15:02.276Z,57.80
2018-10-07T17:17:30.955Z,57.70
2018-10-07T17:19:58.611Z,57.70
2018-10-07T17:22:27.291Z,57.80
2018-10-07T17:24:54.976Z,57.80
2018-10-07T17:27:22.645Z,57.90
2018-10-07T17:29:50.301Z,58.10
2018-10-07T17:32:18.898Z,58.20
2018-10-07T17:34:48.074Z,58.40
2018-10-07T17:37:15.885Z,58.60
2018-10-07T17:39:43.606Z,58.80
2018-10-07T17:42:11.265Z,58.80
2018-10-07T17:44:39.879Z,59.60
2018-10-07T17:47:10.748Z,59.00
2018-10-07T17:49:39.742Z,59.30
2018-10-07T17:52:07.495Z,59.30
2018-10-07T17:54:35.151Z,59.60
2018-10-07T17:57:02.815Z,59.80
2018-10-07T17:59:30.480Z,59.70
2018-10-07T18:01:58.161Z,59.80
2018-10-07T18:04:25.827Z,60.10
2018-10-07T18:06:53.495Z,60.60
2018-10-07T18:09:21.198Z,60.40
2018-10-07T18:11:48.870Z,60.10
2018-10-07T18:14:17.579Z,60.20
2018-10-07T18:16:45.244Z,60.20
2018-10-07T18:19:12.953Z,60.50
2018-10-07T18:21:41.576Z,60.80
2018-10-07T18:24:11.017Z,60.90
2018-10-07T18:26:40.081Z,60.60
2018-10-07T18:29:07.936Z,60.70
2018-10-07T18:31:36.098Z,61.00
2018-10-07T18:34:04.846Z,61.00
2018-10-07T18:36:33.571Z,60.80
2018-10-07T18:39:01.238Z,60.80
2018-10-07T18:41:29.985Z,60.70
2018-10-07T18:43:58.656Z,60.70
2018-10-07T18:46:26.321Z,60.70
2018-10-07T18:48:54.149Z,60.70
2018-10-07T18:51:22.860Z,60.80
2018-10-07T18:53:51.616Z,60.80
2018-10-07T18:56:19.344Z,60.80
2018-10-07T18:58:47.023Z,60.80
2018-10-07T19:01:14.815Z,60.80
2018-10-07T19:03:42.481Z,61.50
2018-10-07T19:06:11.623Z,60.80
2018-10-07T19:08:40.801Z,60.80
2018-10-07T19:11:10.134Z,61.00
2018-10-07T19:13:37.815Z,61.00
2018-10-07T19:16:06.296Z,61.40
2018-10-07T19:18:34.906Z,61.20
2018-10-07T19:21:03.712Z,61.40
2018-10-07T19:23:31.355Z,61.50
2018-10-07T19:25:59.096Z,61.50
2018-10-07T19:28:27.746Z,61.20
2018-10-07T19:30:55.452Z,61.10
2018-10-07T19:33:23.308Z,61.50
2018-10-07T19:35:51.976Z,62.10
2018-10-07T19:38:19.641Z,61.50
2018-10-07T19:40:47.348Z,62.10
2018-10-07T19:43:15.004Z,61.50
2018-10-07T19:45:43.700Z,61.90
2018-10-07T19:48:11.404Z,61.70
2018-10-07T19:50:41.082Z,62.30
2018-10-07T19:53:11.009Z,61.50
2018-10-07T19:55:38.661Z,61.50
2018-10-07T19:58:07.969Z,61.10
2018-10-07T20:00:36.206Z,61.10
2018-10-07T20:03:04.184Z,61.10
2018-10-07T20:05:31.883Z,60.90
2018-10-07T20:07:59.548Z,61.20
2018-10-07T20:10:27.415Z,61.20
2018-10-07T20:12:56.112Z,61.10
2018-10-07T20:15:23.776Z,61.30
2018-10-07T20:17:51.439Z,61.20
2018-10-07T20:20:19.092Z,61.00
2018-10-07T20:22:47.751Z,61.60
2018-10-07T20:25:15.464Z,61.10
2018-10-07T20:27:44.145Z,60.70
2018-10-07T20:31:16.046Z,60.70
2018-10-07T20:33:43.763Z,60.90
2018-10-07T20:36:11.843Z,61.10
2018-10-07T20:38:39.997Z,61.30
2018-10-07T20:41:08.341Z,61.30
2018-10-07T20:43:37.112Z,61.20
2018-10-07T20:46:04.936Z,61.10
2018-10-07T20:48:32.588Z,61.20
2018-10-07T20:51:00.285Z,61.10
2018-10-07T20:53:29.172Z,60.50
2018-10-07T20:55:57.726Z,60.30
2018-10-07T20:58:25.386Z,60.60
2018-10-07T21:00:53.043Z,60.70
2018-10-07T21:03:20.701Z,60.80
2018-10-07T21:05:49.252Z,60.80
2018-10-07T21:08:17.848Z,60.80
2018-10-07T21:10:46.551Z,60.70
2018-10-07T21:13:15.143Z,60.70
2018-10-07T21:15:43.691Z,60.70
2018-10-07T21:18:11.351Z,60.70
2018-10-07T21:20:39.743Z,60.80
2018-10-07T21:23:09.704Z,60.90
2018-10-07T21:25:38.276Z,61.00
2018-10-07T21:28:07.064Z,61.00
2018-10-07T21:30:35.060Z,61.10
2018-10-07T21:33:03.715Z,61.20
2018-10-07T21:35:31.381Z,61.20
2018-10-07T21:37:59.084Z,61.20
2018-10-07T21:40:26.747Z,61.20
2018-10-07T21:42:55.335Z,61.10
2018-10-07T21:45:23.872Z,61.30
2018-10-07T21:47:52.451Z,61.20
2018-10-07T21:50:21.103Z,61.10
2018-10-07T21:52:48.817Z,61.20
2018-10-07T21:55:17.364Z,61.10
2018-10-07T21:57:46.032Z,61.00
2018-10-07T22:00:14.715Z,60.90
2018-10-07T22:02:43.492Z,60.70
2018-10-07T22:05:11.152Z,61.10
2018-10-07T22:07:41.180Z,60.90
2018-10-07T22:10:11.065Z,61.10
2018-10-07T22:12:40.320Z,60.90
2018-10-07T22:15:10.096Z,61.00
2018-10-07T22:17:40.064Z,61.00
2018-10-07T22:20:10.484Z,60.70
2018-10-07T22:22:39.653Z,60.90
2018-10-07T22:25:08.004Z,60.90
2018-10-07T22:27:36.276Z,61.10
2018-10-07T22:30:05.009Z,60.80
2018-10-07T22:32:33.769Z,60.50
2018-10-07T22:35:02.463Z,60.80
2018-10-07T22:37:31.016Z,60.80
2018-10-07T22:39:59.730Z,60.70
2018-10-07T22:42:28.407Z,60.90
2018-10-07T22:44:56.948Z,60.90
2018-10-07T22:47:24.615Z,60.70
2018-10-07T22:49:53.204Z,61.00
2018-10-07T22:52:21.897Z,60.80
2018-10-07T22:54:50.569Z,61.00
2018-10-07T22:57:19.239Z,60.80
2018-10-07T22:59:47.919Z,60.30
2018-10-07T23:02:15.592Z,60.70
2018-10-07T23:04:43.259Z,60.80
2018-10-07T23:07:10.916Z,61.40
2018-10-07T23:09:41.007Z,61.00
2018-10-07T23:12:09.531Z,61.10
2018-10-07T23:14:37.872Z,61.50
2018-10-07T23:17:06.477Z,60.90
2018-10-07T23:19:34.144Z,60.90
2018-10-07T23:22:01.845Z,61.00
2018-10-07T23:24:29.517Z,60.70
2018-10-07T23:26:57.212Z,59.80
2018-10-07T23:29:24.893Z,60.00
2018-10-07T23:31:52.564Z,60.30
2018-10-07T23:34:20.335Z,60.70
2018-10-07T23:36:48.002Z,60.70
2018-10-07T23:39:15.665Z,60.60
2018-10-07T23:41:43.333Z,60.70
2018-10-07T23:44:11.047Z,60.70
2018-10-07T23:46:39.546Z,60.70
2018-10-07T23:49:07.876Z,60.00
2018-10-07T23:51:35.728Z,59.40
2018-10-07T23:54:03.975Z,60.00
2018-10-07T23:56:31.640Z,60.40
2018-10-07T23:58:59.661Z,60.50
